createdAt,value
2023-01-02T00:01:01.553Z,18.90
2023-01-02T00:03:28.380Z,16.65
2023-01-02T00:05:55.122Z,17.63
2023-01-02T00:08:21.841Z,18.02
2023-01-02T00:10:50.504Z,19.80
2023-01-02T00:13:19.426Z,18.40
2023-01-02T00:15:46.094Z,19.25
2023-01-02T00:18:12.922Z,21.83
2023-01-02T00:20:39.579Z,17.30
2023-01-02T00:23:06.179Z,16.55
2023-01-02T00:25:34.827Z,20.17
2023-01-02T00:28:02.257Z,18.50
2023-01-02T00:30:35.748Z,16.52
2023-01-02T00:33:04.869Z,19.92
2023-01-02T00:35:31.463Z,19.30
2023-01-02T00:37:58.032Z,18.52
2023-01-02T00:40:24.688Z,18.90
2023-01-02T00:42:51.303Z,17.80
2023-01-02T00:45:17.906Z,19.30
2023-01-02T00:47:44.485Z,20.33
2023-01-02T00:50:11.049Z,22.45
2023-01-02T00:52:37.629Z,20.55
2023-01-02T00:55:04.698Z,20.17
2023-01-02T00:57:31.344Z,19.45
2023-01-02T00:59:57.979Z,22.70
2023-01-02T01:02:25.990Z,20.67
2023-01-02T01:04:52.660Z,21.70
2023-01-02T01:07:19.298Z,20.08
2023-01-02T01:09:45.863Z,22.67
2023-01-02T01:12:12.492Z,20.50
2023-01-02T01:14:39.127Z,22.40
2023-01-02T01:17:05.748Z,19.92
2023-01-02T01:19:34.224Z,20.90
2023-01-02T01:22:00.871Z,22.10
2023-01-02T01:24:27.691Z,22.40
2023-01-02T01:26:54.335Z,20.25
2023-01-02T01:29:21.027Z,24.58
2023-01-02T01:31:47.658Z,19.27
2023-01-02T01:34:14.660Z,20.30
2023-01-02T01:36:41.304Z,22.25
2023-01-02T01:39:07.920Z,22.73
2023-01-02T01:41:34.563Z,20.67
2023-01-02T01:44:03.148Z,17.33
2023-01-02T01:46:29.669Z,17.65
2023-01-02T01:48:59.256Z,21.48
2023-01-02T01:51:29.440Z,19.85
2023-01-02T01:54:05.543Z,22.05
2023-01-02T01:56:36.135Z,17.98
2023-01-02T01:59:03.368Z,19.25
2023-01-02T02:01:30.306Z,19.73
2023-01-02T02:03:57.437Z,22.30
2023-01-02T02:06:24.176Z,20.92
2023-01-02T02:09:05.940Z,20.55
2023-01-02T02:11:32.709Z,17.23
2023-01-02T02:14:00.519Z,18.63
2023-01-02T02:16:53.053Z,25.35
2023-01-02T02:19:19.608Z,22.27
2023-01-02T02:21:55.404Z,22.17
2023-01-02T02:24:40.535Z,21.45
2023-01-02T02:27:37.811Z,22.05
2023-01-02T02:30:11.226Z,21.33
2023-01-02T02:33:16.462Z,23.17
2023-01-02T02:35:58.733Z,22.45
2023-01-02T02:38:28.203Z,19.08
2023-01-02T02:41:16.445Z,21.55
2023-01-02T02:44:17.191Z,23.65
2023-01-02T02:47:03.543Z,19.85
2023-01-02T02:49:45.268Z,21.40
2023-01-02T02:52:29.618Z,21.13
2023-01-02T02:55:05.388Z,21.83
2023-01-02T02:57:33.149Z,21.38
2023-01-02T03:00:00.091Z,22.83
2023-01-02T03:02:26.867Z,19.90
2023-01-02T03:04:59.921Z,19.50
2023-01-02T03:07:38.762Z,17.67
2023-01-02T03:10:30.438Z,17.50
2023-01-02T03:13:15.202Z,20.95
2023-01-02T03:16:06.486Z,21.15
2023-01-02T03:18:59.817Z,22.60
2023-01-02T03:21:32.451Z,19.70
2023-01-02T03:24:05.594Z,21.48
2023-01-02T03:26:34.793Z,18.42
2023-01-02T03:29:10.345Z,23.60
2023-01-02T03:31:40.873Z,22.60
2023-01-02T03:34:12.560Z,22.30
2023-01-02T03:36:42.703Z,21.90
2023-01-02T03:39:15.383Z,21.85
2023-01-02T03:41:56.480Z,25.20
2023-01-02T03:44:26.161Z,21.70
2023-01-02T03:47:03.328Z,21.70
2023-01-02T03:49:37.356Z,18.40
2023-01-02T03:52:04.071Z,21.52
2023-01-02T03:54:31.471Z,21.27
2023-01-02T03:57:09.895Z,23.27
2023-01-02T03:59:54.544Z,19.45
2023-01-02T04:02:24.004Z,20.50
2023-01-02T04:05:13.690Z,20.98
2023-01-02T04:08:10.304Z,20.00
2023-01-02T04:10:39.127Z,26.98
2023-01-02T04:13:13.187Z,20.98
2023-01-02T04:15:43.436Z,24.42
2023-01-02T04:18:15.673Z,21.85
2023-01-02T04:20:47.314Z,20.00
2023-01-02T04:23:19.573Z,19.80
2023-01-02T04:25:55.711Z,17.83
2023-01-02T04:28:29.090Z,18.92
2023-01-02T04:31:03.821Z,19.35
2023-01-02T04:33:35.347Z,20.95
2023-01-02T04:36:13.360Z,21.20
2023-01-02T04:38:41.809Z,20.85
2023-01-02T04:41:09.965Z,21.52
2023-01-02T04:43:36.551Z,19.83
2023-01-02T04:46:03.195Z,18.33
2023-01-02T04:48:29.772Z,20.65
2023-01-02T04:50:56.361Z,22.15
2023-01-02T04:53:23.125Z,21.88
2023-01-02T04:55:55.435Z,19.05
2023-01-02T04:58:22.209Z,19.00
2023-01-02T05:00:48.783Z,20.00
2023-01-02T05:03:16.126Z,18.30
2023-01-02T05:05:42.693Z,20.83
2023-01-02T05:08:15.633Z,18.67
2023-01-02T05:10:42.858Z,16.05
2023-01-02T05:13:09.486Z,19.65
2023-01-02T05:15:36.112Z,18.50
2023-01-02T05:18:02.765Z,20.25
2023-01-02T05:20:29.340Z,20.50
2023-01-02T05:23:14.987Z,19.05
2023-01-02T05:25:41.595Z,22.48
2023-01-02T05:28:08.231Z,17.67
2023-01-02T05:30:34.816Z,17.27
2023-01-02T05:33:01.394Z,19.70
2023-01-02T05:35:32.502Z,16.05
2023-01-02T05:38:00.278Z,16.48
2023-01-02T05:40:26.856Z,17.42
2023-01-02T05:42:53.432Z,15.73
2023-01-02T05:45:20.050Z,18.23
2023-01-02T05:47:46.663Z,16.88
2023-01-02T05:50:13.240Z,16.20
2023-01-02T05:52:45.073Z,17.50
2023-01-02T05:55:12.594Z,20.38
2023-01-02T05:57:41.621Z,22.58
2023-01-02T06:00:08.732Z,23.30
2023-01-02T06:02:41.062Z,22.40
2023-01-02T06:05:09.721Z,28.30
2023-01-02T06:07:36.307Z,28.67
2023-01-02T06:10:03.087Z,25.30
2023-01-02T06:12:29.651Z,28.92
2023-01-02T06:14:56.298Z,23.52
2023-01-02T06:17:22.951Z,24.90
2023-01-02T06:19:53.980Z,24.60
2023-01-02T06:22:20.905Z,22.98
2023-01-02T06:24:47.509Z,23.58
2023-01-02T06:27:14.126Z,21.27
2023-01-02T06:29:40.692Z,20.40
2023-01-02T06:32:07.405Z,20.25
2023-01-02T06:34:34.085Z,21.88
2023-01-02T06:37:04.529Z,24.95
2023-01-02T06:39:35.927Z,24.10
2023-01-02T06:42:02.505Z,21.88
2023-01-02T06:44:29.097Z,24.73
2023-01-02T06:46:55.667Z,25.02
2023-01-02T06:49:22.240Z,25.83
2023-01-02T06:51:48.832Z,27.15
2023-01-02T06:54:15.432Z,22.15
2023-01-02T06:56:42.100Z,28.80
2023-01-02T06:59:10.079Z,22.67
2023-01-02T07:01:36.775Z,25.67
2023-01-02T07:04:03.477Z,22.83
2023-01-02T07:06:30.064Z,24.48
2023-01-02T07:08:56.717Z,24.45
2023-01-02T07:11:24.974Z,28.05
2023-01-02T07:13:53.819Z,25.05
2023-01-02T07:16:22.061Z,27.75
2023-01-02T07:18:49.125Z,24.63
2023-01-02T07:21:18.488Z,23.77
2023-01-02T07:23:45.585Z,24.80
2023-01-02T07:26:13.365Z,24.65
2023-01-02T07:28:40.093Z,23.50
2023-01-02T07:31:11.320Z,27.20
2023-01-02T07:33:37.988Z,26.77
2023-01-02T07:36:11.252Z,24.10
2023-01-02T07:38:39.263Z,26.02
2023-01-02T07:41:14.188Z,27.38
2023-01-02T07:43:41.874Z,23.90
2023-01-02T07:46:08.508Z,26.25
2023-01-02T07:48:35.228Z,24.65
2023-01-02T07:51:04.185Z,24.88
2023-01-02T07:53:30.991Z,26.02
2023-01-02T07:55:59.015Z,26.48
2023-01-02T07:58:25.892Z,28.63
2023-01-02T08:00:58.364Z,24.95
2023-01-02T08:03:28.181Z,22.33
2023-01-02T08:05:54.769Z,27.42
2023-01-02T08:08:21.329Z,25.88
2023-01-02T08:10:47.902Z,22.77
2023-01-02T08:13:14.552Z,21.35
2023-01-02T08:15:41.175Z,30.00
2023-01-02T08:18:07.760Z,21.55
2023-01-02T08:20:34.451Z,25.35
2023-01-02T08:23:01.038Z,22.85
2023-01-02T08:25:27.623Z,26.65
2023-01-02T08:27:54.210Z,20.85
2023-01-02T08:30:20.785Z,24.60
2023-01-02T08:32:47.391Z,21.08
2023-01-02T08:35:14.082Z,28.48
2023-01-02T08:37:42.508Z,33.08
2023-01-02T08:40:12.439Z,28.52
2023-01-02T08:42:42.199Z,28.38
2023-01-02T08:45:09.411Z,25.65
2023-01-02T08:47:35.992Z,23.83
2023-01-02T08:50:02.583Z,25.95
2023-01-02T08:52:29.146Z,28.75
2023-01-02T08:54:55.757Z,27.20
2023-01-02T08:57:22.360Z,28.80
2023-01-02T08:59:49.240Z,30.85
2023-01-02T09:02:16.228Z,23.75
2023-01-02T09:04:42.897Z,24.67
2023-01-02T09:07:09.531Z,22.60
2023-01-02T09:09:36.118Z,20.50
2023-01-02T09:12:02.756Z,20.67
2023-01-02T09:14:29.367Z,22.42
2023-01-02T09:16:58.029Z,23.40
2023-01-02T09:19:25.414Z,23.58
2023-01-02T09:21:52.297Z,19.98
2023-01-02T09:24:20.229Z,19.38
2023-01-02T09:26:46.880Z,20.05
2023-01-02T09:29:15.074Z,19.90
2023-01-02T09:31:42.064Z,17.08
2023-01-02T09:34:08.780Z,17.35
2023-01-02T09:36:35.385Z,17.08
2023-01-02T09:39:02.335Z,17.42
2023-01-02T09:41:44.032Z,14.55
2023-01-02T09:44:32.057Z,14.20
2023-01-02T09:47:12.325Z,14.45
2023-01-02T09:49:52.926Z,14.85
2023-01-02T09:52:26.268Z,14.70
2023-01-02T09:54:53.028Z,14.10
2023-01-02T09:57:28.663Z,14.63
2023-01-02T10:00:20.873Z,13.35
2023-01-02T10:03:02.837Z,12.40
2023-01-02T10:06:03.638Z,15.75
2023-01-02T10:08:47.916Z,13.27
2023-01-02T10:11:32.190Z,12.32
2023-01-02T10:14:26.345Z,12.50
2023-01-02T10:16:57.503Z,11.90
2023-01-02T10:19:48.539Z,13.07
2023-01-02T10:22:22.963Z,12.10
2023-01-02T10:25:23.613Z,12.60
2023-01-02T10:27:59.954Z,11.95
2023-01-02T10:30:30.993Z,10.57
2023-01-02T10:33:03.989Z,10.73
2023-01-02T10:35:50.686Z,12.63
2023-01-02T10:38:19.632Z,11.88
2023-01-02T10:40:50.192Z,12.95
2023-01-02T10:43:18.174Z,11.38
2023-01-02T10:45:44.790Z,10.20
2023-01-02T10:48:11.581Z,10.85
2023-01-02T10:50:58.072Z,13.85
2023-01-02T10:53:33.085Z,13.05
2023-01-02T10:56:04.636Z,10.43
2023-01-02T10:58:34.524Z,9.30
2023-01-02T11:01:14.280Z,11.25
2023-01-02T11:03:41.092Z,11.18
2023-01-02T11:06:35.213Z,12.63
2023-01-02T11:09:21.494Z,10.35
2023-01-02T11:11:50.885Z,11.30
2023-01-02T11:14:21.982Z,10.95
2023-01-02T11:16:49.234Z,10.00
2023-01-02T11:19:27.443Z,11.75
2023-01-02T11:21:56.498Z,11.48
2023-01-02T11:24:27.449Z,11.73
2023-01-02T11:26:54.803Z,11.50
2023-01-02T11:29:32.925Z,11.30
2023-01-02T11:32:02.267Z,11.65
2023-01-02T11:34:40.576Z,11.50
2023-01-02T11:37:12.959Z,12.25
2023-01-02T11:39:40.644Z,12.55
2023-01-02T11:42:38.419Z,13.40
2023-01-02T11:45:17.692Z,11.60
2023-01-02T11:47:55.213Z,8.23
2023-01-02T11:50:21.856Z,11.40
2023-01-02T11:53:01.338Z,12.43
2023-01-02T11:55:58.498Z,13.45
2023-01-02T11:58:36.625Z,16.38
2023-01-02T12:01:21.993Z,17.48
2023-01-02T12:03:49.142Z,21.00
2023-01-02T12:06:19.700Z,17.67
2023-01-02T12:09:11.725Z,13.93
2023-01-02T12:11:59.508Z,16.23
2023-01-02T12:14:49.228Z,13.95
2023-01-02T12:17:28.303Z,10.10
2023-01-02T12:20:12.303Z,12.13
2023-01-02T12:23:08.431Z,7.47
2023-01-02T12:25:39.211Z,9.90
2023-01-02T12:28:45.001Z,9.32
2023-01-02T12:31:20.700Z,7.53
2023-01-02T12:33:53.056Z,7.28
2023-01-02T12:36:35.680Z,8.25
2023-01-02T12:39:32.679Z,6.35
2023-01-02T12:42:02.513Z,6.78
2023-01-02T12:44:35.362Z,9.02
2023-01-02T12:47:11.130Z,10.07
2023-01-02T12:50:15.080Z,8.70
2023-01-02T12:52:57.725Z,9.85
2023-01-02T12:55:35.332Z,7.72
2023-01-02T12:58:29.193Z,7.78
2023-01-02T13:01:14.539Z,5.93
2023-01-02T13:03:58.293Z,7.38
2023-01-02T13:06:46.678Z,8.68
2023-01-02T13:09:23.305Z,9.18
2023-01-02T13:12:22.619Z,8.05
2023-01-02T13:14:57.889Z,10.38
2023-01-02T13:17:33.417Z,12.32
2023-01-02T13:20:10.690Z,10.90
2023-01-02T13:22:43.084Z,10.68
2023-01-02T13:25:19.928Z,7.82
2023-01-02T13:27:48.841Z,7.53
2023-01-02T13:31:11.190Z,5.93
2023-01-02T13:33:45.681Z,6.82
2023-01-02T13:36:22.977Z,5.47
2023-01-02T13:38:54.891Z,7.43
2023-01-02T13:41:22.274Z,9.35
2023-01-02T13:43:54.662Z,9.45
2023-01-02T13:47:01.944Z,10.13
2023-01-02T13:49:20.720Z,8.57
2023-01-02T13:51:47.475Z,11.50
2023-01-02T13:54:20.988Z,6.30
2023-01-02T13:57:17.368Z,7.50
2023-01-02T13:59:57.163Z,10.60
2023-01-02T14:02:24.078Z,10.25
2023-01-02T14:04:51.228Z,10.32
2023-01-02T14:07:26.812Z,10.63
2023-01-02T14:10:02.247Z,9.63
2023-01-02T14:12:29.175Z,8.73
2023-01-02T14:14:55.884Z,7.78
2023-01-02T14:17:33.123Z,9.73
2023-01-02T14:20:29.681Z,8.70
2023-01-02T14:23:00.948Z,11.55
2023-01-02T14:25:28.683Z,12.77
2023-01-02T14:28:02.083Z,9.20
2023-01-02T14:30:38.816Z,8.52
2023-01-02T14:33:10.729Z,12.38
2023-01-02T14:35:49.431Z,14.18
2023-01-02T14:38:23.195Z,15.90
2023-01-02T14:40:50.072Z,14.82
2023-01-02T14:43:30.090Z,13.90
2023-01-02T14:46:08.206Z,13.00
2023-01-02T14:49:25.286Z,12.25
2023-01-02T14:52:05.229Z,10.10
2023-01-02T14:54:55.933Z,10.63
2023-01-02T14:57:36.912Z,12.85
2023-01-02T15:00:11.906Z,9.10
2023-01-02T15:02:44.490Z,9.77
2023-01-02T15:05:21.643Z,9.45
2023-01-02T15:07:52.220Z,11.10
2023-01-02T15:10:21.816Z,11.48
2023-01-02T15:13:03.512Z,11.15
2023-01-02T15:15:47.721Z,11.32
2023-01-02T15:18:24.059Z,10.05
2023-01-02T15:20:53.559Z,10.45
2023-01-02T15:23:23.052Z,10.90
2023-01-02T15:25:49.826Z,9.93
2023-01-02T15:28:31.747Z,9.00
2023-01-02T15:31:04.143Z,10.10
2023-01-02T15:33:34.310Z,7.43
2023-01-02T15:36:08.528Z,11.30
2023-01-02T15:38:35.131Z,10.52
2023-01-02T15:41:02.489Z,8.93
2023-01-02T15:43:51.488Z,11.85
2023-01-02T15:46:18.785Z,11.73
2023-01-02T15:48:46.438Z,14.57
2023-01-02T15:51:18.609Z,14.32
2023-01-02T15:53:47.437Z,11.43
2023-01-02T15:56:31.364Z,14.50
2023-01-02T15:58:58.508Z,13.32
2023-01-02T16:01:25.288Z,13.43
2023-01-02T16:04:02.638Z,12.80
2023-01-02T16:06:41.212Z,12.65
2023-01-02T16:09:18.322Z,9.85
2023-01-02T16:11:48.636Z,11.30
2023-01-02T16:14:20.259Z,8.57
2023-01-02T16:16:59.060Z,9.77
2023-01-02T16:19:45.386Z,8.77
2023-01-02T16:22:11.988Z,11.20
2023-01-02T16:24:45.576Z,14.05
2023-01-02T16:27:24.228Z,12.48
2023-01-02T16:29:52.939Z,13.15
2023-01-02T16:32:32.833Z,12.73
2023-01-02T16:35:34.261Z,12.38
2023-01-02T16:38:06.338Z,14.23
2023-01-02T16:40:59.794Z,12.57
2023-01-02T16:43:30.597Z,12.63
2023-01-02T16:45:58.424Z,11.07
2023-01-02T16:48:28.326Z,9.60
2023-01-02T16:50:56.766Z,12.88
2023-01-02T16:53:28.137Z,11.32
2023-01-02T16:55:56.031Z,14.70
2023-01-02T16:58:25.279Z,11.45
2023-01-02T17:00:53.648Z,14.40
2023-01-02T17:03:23.959Z,15.20
2023-01-02T17:06:01.312Z,13.10
2023-01-02T17:08:32.037Z,18.35
2023-01-02T17:10:59.519Z,15.95
2023-01-02T17:13:27.054Z,17.50
2023-01-02T17:15:53.878Z,11.68
2023-01-02T17:18:20.724Z,15.98
2023-01-02T17:20:47.398Z,12.98
2023-01-02T17:23:14.098Z,15.00
2023-01-02T17:25:43.577Z,15.00
2023-01-02T17:28:10.642Z,18.10
2023-01-02T17:30:37.745Z,12.85
2023-01-02T17:33:04.703Z,13.65
2023-01-02T17:35:33.653Z,14.27
2023-01-02T17:38:00.737Z,15.45
2023-01-02T17:40:27.473Z,14.68
2023-01-02T17:42:54.537Z,12.68
2023-01-02T17:45:21.516Z,14.50
2023-01-02T17:48:02.131Z,13.95
2023-01-02T17:50:32.792Z,19.17
2023-01-02T17:52:59.923Z,18.77
2023-01-02T17:55:26.576Z,17.05
2023-01-02T17:57:53.260Z,17.33
2023-01-02T18:00:23.273Z,19.38
2023-01-02T18:02:51.536Z,21.40
2023-01-02T18:05:18.261Z,21.52
2023-01-02T18:07:44.925Z,24.60
2023-01-02T18:10:16.042Z,23.80
2023-01-02T18:12:46.028Z,25.40
2023-01-02T18:15:15.229Z,23.48
2023-01-02T18:17:42.398Z,22.88
2023-01-02T18:20:14.610Z,23.75
2023-01-02T18:22:48.487Z,21.15
2023-01-02T18:25:21.119Z,21.13
2023-01-02T18:27:48.542Z,18.92
2023-01-02T18:30:21.761Z,22.30
2023-01-02T18:32:49.940Z,22.83
2023-01-02T18:38:23.963Z,22.23
2023-01-02T18:40:53.103Z,22.90
2023-01-02T18:43:32.854Z,26.23
2023-01-02T18:46:09.386Z,22.17
2023-01-02T18:48:36.736Z,21.55
2023-01-02T18:51:03.311Z,21.88
2023-01-02T18:53:35.151Z,22.10
2023-01-02T18:56:12.915Z,22.25
2023-01-02T18:58:43.478Z,21.85
2023-01-02T19:01:27.463Z,19.73
2023-01-02T19:04:19.039Z,22.23
2023-01-02T19:06:53.723Z,20.25
2023-01-02T19:09:32.365Z,20.33
2023-01-02T19:12:35.711Z,20.08
2023-01-02T19:15:33.601Z,30.38
2023-01-02T19:18:18.575Z,22.42
2023-01-02T19:20:49.165Z,23.10
2023-01-02T19:23:27.935Z,23.58
2023-01-02T19:25:56.385Z,25.20
2023-01-02T19:28:30.363Z,22.23
2023-01-02T19:30:57.396Z,22.65
2023-01-02T19:33:39.361Z,25.40
2023-01-02T19:36:15.655Z,24.83
2023-01-02T19:38:42.790Z,19.08
2023-01-02T19:41:09.571Z,18.92
2023-01-02T19:43:36.194Z,23.65
2023-01-02T19:46:02.887Z,20.20
2023-01-02T19:48:29.471Z,12.82
2023-01-02T19:50:56.257Z,18.02
2023-01-02T19:53:22.932Z,18.75
2023-01-02T19:55:49.838Z,20.75
2023-01-02T19:58:17.696Z,25.52
2023-01-02T20:00:45.019Z,26.83
2023-01-02T20:03:12.292Z,25.75
2023-01-02T20:05:39.637Z,25.60
2023-01-02T20:08:06.427Z,28.30
2023-01-02T20:10:33.014Z,25.58
2023-01-02T20:12:59.681Z,25.80
2023-01-02T20:15:27.428Z,31.25
2023-01-02T20:17:54.460Z,29.60
2023-01-02T20:20:23.889Z,30.10
2023-01-02T20:22:51.676Z,29.60
2023-01-02T20:25:23.972Z,27.90
2023-01-02T20:27:52.089Z,28.53
2023-01-02T20:30:23.860Z,27.20
2023-01-02T20:32:51.539Z,26.02
2023-01-02T20:35:18.246Z,30.63
2023-01-02T20:37:44.873Z,26.35
2023-01-02T20:40:11.826Z,27.40
2023-01-02T20:42:38.467Z,25.42
2023-01-02T20:45:05.991Z,24.55
2023-01-02T20:47:32.644Z,25.52
2023-01-02T20:49:59.372Z,25.65
2023-01-02T20:52:25.962Z,22.45
2023-01-02T20:54:52.572Z,25.98
2023-01-02T20:57:19.235Z,23.25
2023-01-02T20:59:45.932Z,26.00
2023-01-02T21:02:12.800Z,26.15
2023-01-02T21:04:39.525Z,26.80
2023-01-02T21:07:06.427Z,27.67
2023-01-02T21:09:33.338Z,32.97
2023-01-02T21:11:59.910Z,44.90
2023-01-02T21:14:26.503Z,43.38
2023-01-02T21:16:54.598Z,27.27
2023-01-02T21:19:21.388Z,24.02
2023-01-02T21:21:47.979Z,25.15
2023-01-02T21:24:14.579Z,18.35
2023-01-02T21:26:41.199Z,25.17
2023-01-02T21:29:07.797Z,23.23
2023-01-02T21:31:34.537Z,21.15
2023-01-02T21:34:01.158Z,25.88
2023-01-02T21:36:28.215Z,22.05
2023-01-02T21:38:55.019Z,15.27
2023-01-02T21:41:40.392Z,21.00
2023-01-02T21:44:07.040Z,21.25
2023-01-02T21:46:33.639Z,22.58
2023-01-02T21:49:00.248Z,18.30
2023-01-02T21:51:32.425Z,18.83
2023-01-02T21:53:59.958Z,17.95
2023-01-02T21:56:26.618Z,17.98
2023-01-02T21:58:53.281Z,18.13
2023-01-02T22:01:19.971Z,14.30
2023-01-02T22:03:46.749Z,19.75
2023-01-02T22:06:14.239Z,16.02
2023-01-02T22:08:40.923Z,19.73
2023-01-02T22:11:26.143Z,17.00
2023-01-02T22:13:52.718Z,15.25
2023-01-02T22:16:19.398Z,17.92
2023-01-02T22:18:46.257Z,17.20
2023-01-02T22:21:15.009Z,19.80
2023-01-02T22:23:41.899Z,17.67
2023-01-02T22:26:08.566Z,18.30
2023-01-02T22:28:35.184Z,23.85
2023-01-02T22:31:01.860Z,23.73
2023-01-02T22:33:28.502Z,24.77
2023-01-02T22:35:55.066Z,24.60
2023-01-02T22:38:21.680Z,24.45
2023-01-02T22:40:48.287Z,25.65
2023-01-02T22:43:20.811Z,23.58
2023-01-02T22:45:52.660Z,25.92
2023-01-02T22:48:23.537Z,26.40
2023-01-02T22:50:52.960Z,21.17
2023-01-02T22:53:26.516Z,21.10
2023-01-02T22:55:53.476Z,22.38
2023-01-02T22:58:21.727Z,32.30
2023-01-02T23:00:56.773Z,23.98
2023-01-02T23:03:23.457Z,22.42
2023-01-02T23:05:50.055Z,23.05
2023-01-02T23:08:16.725Z,21.88
2023-01-02T23:10:43.356Z,18.73
2023-01-02T23:13:10.019Z,23.08
2023-01-02T23:15:56.582Z,22.35
2023-01-02T23:18:42.495Z,21.23
2023-01-02T23:21:09.642Z,23.23
2023-01-02T23:23:36.323Z,23.50
2023-01-02T23:26:04.924Z,20.00
2023-01-02T23:29:05.071Z,18.60
2023-01-02T23:31:18.289Z,22.52
2023-01-02T23:33:44.837Z,19.83
2023-01-02T23:36:11.897Z,18.90
2023-01-02T23:38:38.474Z,20.58
2023-01-02T23:41:05.163Z,18.67
2023-01-02T23:43:31.799Z,18.40
2023-01-02T23:45:58.415Z,17.15
2023-01-02T23:48:25.059Z,16.60
2023-01-02T23:50:58.946Z,16.63
2023-01-02T23:53:26.994Z,15.55
2023-01-02T23:55:54.076Z,16.98
2023-01-02T23:58:21.186Z,20.33
